Time;durP1;ratioP1;P1;durP2;ratioP2;P2;SDS_P1;SDS_P2;PMS_P1;PMS_P2;Temp;Humidity;BMP_temperature;BMP_pressure;BME280_temperature;BME280_humidity;BME280_pressure;Samples;Min_cycle;Max_cycle;Signal;HPM_P1;HPM_P2
2022/11/09 00:01:51;;;;;;;2.27;1.30;;;13.80;83.30;;;;;;5017026;28;20459;-48
2022/11/09 00:04:20;;;;;;;1.30;1.20;;;13.80;83.30;;;;;;5012935;28;20436;-49
2022/11/09 00:06:49;;;;;;;3.47;1.00;;;13.80;83.40;;;;;;5039087;28;20470;-49
2022/11/09 00:09:17;;;;;;;1.40;1.20;;;13.80;83.20;;;;;;5033056;28;20936;-50
2022/11/09 00:11:48;;;;;;;1.83;1.00;;;13.80;83.20;;;;;;5013352;28;20551;-50
2022/11/09 00:14:17;;;;;;;1.07;0.73;;;13.80;83.20;;;;;;5013375;28;20527;-50
2022/11/09 00:16:46;;;;;;;1.37;1.07;;;13.80;83.30;;;;;;5041836;28;20458;-49
2022/11/09 00:19:15;;;;;;;1.23;1.00;;;13.80;83.30;;;;;;5021102;28;21058;-50
2022/11/09 00:21:43;;;;;;;1.20;1.10;;;13.80;83.30;;;;;;5032015;28;20472;-50
2022/11/09 00:24:12;;;;;;;1.63;1.17;;;13.80;83.20;;;;;;5029753;28;20488;-50
2022/11/09 00:26:41;;;;;;;1.27;1.03;;;13.80;83.20;;;;;;5009282;28;20453;-50
2022/11/09 00:29:11;;;;;;;0.80;0.80;;;13.80;83.50;;;;;;5033104;28;20478;-50
2022/11/09 00:31:42;;;;;;;0.93;0.80;;;13.80;83.50;;;;;;5025578;28;20471;-50
2022/11/09 00:34:10;;;;;;;1.37;1.27;;;13.80;83.40;;;;;;5034577;28;20559;-50
2022/11/09 00:36:42;;;;;;;2.80;1.10;;;13.80;83.40;;;;;;5029502;28;20462;-48
2022/11/09 00:39:11;;;;;;;1.30;1.00;;;13.80;83.30;;;;;;5015529;28;20603;-50
2022/11/09 00:41:39;;;;;;;0.80;0.80;;;13.80;83.60;;;;;;5027659;28;20467;-50
2022/11/09 00:44:08;;;;;;;1.13;1.00;;;13.80;83.40;;;;;;5037962;28;20444;-50
2022/11/09 00:46:38;;;;;;;3.83;1.00;;;13.80;83.50;;;;;;5028420;28;20597;-49
2022/11/09 00:49:07;;;;;;;1.50;1.20;;;13.80;83.40;;;;;;5017023;28;20851;-50
2022/11/09 00:51:36;;;;;;;1.33;1.03;;;13.80;83.40;;;;;;5015831;28;20439;-50
2022/11/09 00:54:06;;;;;;;1.40;0.97;;;13.80;83.30;;;;;;5032150;28;20440;-50
2022/11/09 00:56:36;;;;;;;0.93;0.87;;;13.80;83.40;;;;;;5006450;28;20436;-50
2022/11/09 00:59:06;;;;;;;1.10;0.93;;;13.80;83.60;;;;;;5029028;28;20558;-49
2022/11/09 01:01:34;;;;;;;2.10;1.50;;;13.80;83.40;;;;;;5033623;28;20602;-49
2022/11/09 01:04:06;;;;;;;1.10;1.00;;;13.80;83.40;;;;;;5040898;28;20446;-49
2022/11/09 01:06:35;;;;;;;2.57;1.47;;;13.80;83.40;;;;;;5037892;28;20475;-50
2022/11/09 01:09:04;;;;;;;1.90;1.20;;;13.80;83.50;;;;;;5011410;28;20475;-50
2022/11/09 01:11:33;;;;;;;1.00;0.90;;;13.80;83.50;;;;;;5026496;28;21001;-49
2022/11/09 01:14:01;;;;;;;1.23;0.90;;;13.80;83.50;;;;;;5002978;28;20934;-50
2022/11/09 01:16:30;;;;;;;0.97;0.80;;;13.80;83.40;;;;;;5029117;28;20490;-49
2022/11/09 01:19:00;;;;;;;1.03;0.93;;;13.80;83.60;;;;;;5014781;28;20439;-49
2022/11/09 01:21:30;;;;;;;1.70;0.90;;;13.80;83.50;;;;;;5036714;28;20825;-50
2022/11/09 01:24:00;;;;;;;1.47;1.10;;;13.80;83.50;;;;;;5009905;28;21048;-50
2022/11/09 01:26:30;;;;;;;1.10;0.93;;;13.80;83.30;;;;;;5028877;28;20452;-50
2022/11/09 01:28:58;;;;;;;1.17;0.97;;;13.80;83.60;;;;;;5030440;28;20966;-50
2022/11/09 01:31:27;;;;;;;2.33;1.43;;;13.80;83.40;;;;;;5026801;28;20448;-50
2022/11/09 01:33:56;;;;;;;1.13;1.00;;;13.80;83.50;;;;;;5005812;28;20484;-50
2022/11/09 01:36:25;;;;;;;2.30;0.70;;;13.80;83.30;;;;;;5028624;28;20436;-49
2022/11/09 01:38:55;;;;;;;1.33;0.90;;;13.80;83.20;;;;;;5035409;28;20443;-49
2022/11/09 01:41:25;;;;;;;1.27;1.00;;;13.80;83.40;;;;;;5011657;28;20501;-50
2022/11/09 01:44:07;;;;;;;1.07;0.80;;;13.80;83.50;;;;;;5014545;28;20434;-49
2022/11/09 01:46:43;;;;;;;1.20;1.10;;;13.80;83.50;;;;;;5027067;28;20455;-50
2022/11/09 01:49:19;;;;;;;1.60;1.30;;;13.80;83.20;;;;;;5027322;28;20824;-50
2022/11/09 01:51:53;;;;;;;4.23;1.10;;;13.80;83.30;;;;;;5030160;28;20977;-50
2022/11/09 01:54:27;;;;;;;1.73;0.73;;;13.80;83.20;;;;;;5032637;28;20448;-50
2022/11/09 01:57:01;;;;;;;1.33;0.97;;;13.80;83.20;;;;;;5028892;28;20834;-49
2022/11/09 01:59:33;;;;;;;1.13;0.93;;;13.80;83.30;;;;;;5020857;28;20967;-50
2022/11/09 02:02:02;;;;;;;1.73;0.87;;;13.80;83.30;;;;;;5019075;28;20482;-50
2022/11/09 02:04:38;;;;;;;1.57;1.00;;;13.80;83.40;;;;;;5022770;28;20446;-49
2022/11/09 02:07:07;;;;;;;0.83;0.80;;;13.80;83.20;;;;;;5033112;28;20450;-50
2022/11/09 02:09:43;;;;;;;1.40;0.90;;;13.80;83.30;;;;;;5029853;28;20565;-50
2022/11/09 02:12:12;;;;;;;1.43;1.20;;;13.80;83.40;;;;;;5032386;28;20470;-50
2022/11/09 02:14:42;;;;;;;3.20;1.07;;;13.80;83.50;;;;;;5040772;28;20530;-49
2022/11/09 02:17:12;;;;;;;1.40;0.90;;;13.80;83.40;;;;;;5014993;28;20447;-50
2022/11/09 02:19:41;;;;;;;2.57;0.90;;;13.80;83.50;;;;;;5012398;28;20509;-50
2022/11/09 02:22:11;;;;;;;1.30;1.07;;;13.80;83.50;;;;;;5030117;28;20472;-50
2022/11/09 02:24:40;;;;;;;2.40;0.90;;;13.80;83.40;;;;;;5026811;28;20979;-50
2022/11/09 02:27:09;;;;;;;1.10;1.00;;;13.80;83.50;;;;;;5040114;28;20453;-49
2022/11/09 02:29:40;;;;;;;3.60;1.07;;;13.80;83.40;;;;;;5036827;28;20536;-50
2022/11/09 02:32:13;;;;;;;2.00;1.17;;;13.80;83.50;;;;;;5028041;28;20460;-50
2022/11/09 02:34:41;;;;;;;2.37;1.13;;;13.80;83.60;;;;;;5012652;28;20443;-50
2022/11/09 02:37:11;;;;;;;1.03;0.73;;;13.80;83.60;;;;;;5031449;28;20440;-48
2022/11/09 02:39:41;;;;;;;1.20;0.97;;;13.80;83.60;;;;;;5028567;28;20880;-50
2022/11/09 02:42:13;;;;;;;1.13;1.03;;;13.80;83.60;;;;;;5015176;28;20483;-50
2022/11/09 02:44:56;;;;;;;1.37;0.90;;;13.80;83.50;;;;;;5031550;28;20551;-49
2022/11/09 02:47:25;;;;;;;2.03;1.23;;;13.80;83.60;;;;;;5013421;28;20475;-49
2022/11/09 02:49:56;;;;;;;1.33;1.10;;;13.80;83.50;;;;;;5069537;23;20843;-69
2022/11/09 02:52:28;;;;;;;1.73;1.07;;;13.80;83.60;;;;;;5003858;28;20551;-69
2022/11/09 02:54:57;;;;;;;1.60;0.83;;;13.80;83.50;;;;;;5026760;28;20567;-68
2022/11/09 02:57:26;;;;;;;1.57;1.47;;;13.80;83.70;;;;;;5012814;28;20467;-68
2022/11/09 02:59:54;;;;;;;1.50;0.73;;;13.80;83.50;;;;;;5028431;28;20463;-69
2022/11/09 03:02:23;;;;;;;1.60;0.90;;;13.80;83.50;;;;;;5029131;28;20467;-68
2022/11/09 03:04:52;;;;;;;2.40;1.00;;;13.80;83.40;;;;;;5012119;28;20476;-69
2022/11/09 03:07:21;;;;;;;1.70;1.10;;;13.80;83.50;;;;;;5030171;28;20439;-69
2022/11/09 03:09:52;;;;;;;1.10;0.83;;;13.80;83.40;;;;;;5026699;28;20470;-69
2022/11/09 03:12:30;;;;;;;4.30;1.20;;;13.80;83.50;;;;;;5030999;28;20546;-69
2022/11/09 03:15:08;;;;;;;1.43;1.10;;;13.80;83.60;;;;;;5009693;28;20498;-69
2022/11/09 03:17:42;;;;;;;1.60;0.80;;;13.80;83.40;;;;;;5029406;28;20451;-69
2022/11/09 03:20:11;;;;;;;1.73;0.90;;;13.80;83.50;;;;;;5028004;28;20876;-69
2022/11/09 03:22:41;;;;;;;3.33;0.83;;;13.80;83.50;;;;;;5014761;28;20810;-68
2022/11/09 03:25:11;;;;;;;1.47;1.10;;;13.80;83.40;;;;;;5012126;28;20522;-69
2022/11/09 03:27:40;;;;;;;1.63;1.10;;;13.80;83.50;;;;;;5006488;28;20440;-68
2022/11/09 03:30:10;;;;;;;1.47;1.10;;;13.80;83.60;;;;;;5012694;28;20479;-69
2022/11/09 03:32:40;;;;;;;1.60;0.90;;;13.80;83.60;;;;;;5005318;28;20447;-68
2022/11/09 03:35:09;;;;;;;2.93;1.53;;;13.80;83.50;;;;;;5035177;28;20470;-69
2022/11/09 03:37:37;;;;;;;1.10;0.97;;;13.80;83.60;;;;;;5014264;28;20930;-68
2022/11/09 03:40:07;;;;;;;0.80;0.80;;;13.80;83.50;;;;;;5021716;28;20487;-69
2022/11/09 03:42:42;;;;;;;1.30;0.97;;;13.80;83.40;;;;;;5030146;28;20859;-70
2022/11/09 03:45:11;;;;;;;1.20;1.10;;;13.80;83.50;;;;;;5002892;28;20883;-69
2022/11/09 03:47:40;;;;;;;3.70;1.10;;;13.80;83.30;;;;;;5025310;28;20527;-68
2022/11/09 03:50:10;;;;;;;1.10;1.00;;;13.80;83.40;;;;;;5005332;28;20570;-69
2022/11/09 03:52:39;;;;;;;1.17;0.90;;;13.80;83.40;;;;;;5031288;28;20880;-69
2022/11/09 03:55:08;;;;;;;1.00;0.90;;;13.80;83.30;;;;;;5011187;28;20480;-69
2022/11/09 03:57:38;;;;;;;1.63;1.10;;;13.80;83.30;;;;;;5014015;28;21055;-69
2022/11/09 04:00:08;;;;;;;2.20;1.10;;;13.80;83.40;;;;;;5029176;28;20472;-68
2022/11/09 04:02:40;;;;;;;2.03;1.27;;;13.80;83.40;;;;;;5007412;28;20480;-68
2022/11/09 04:05:10;;;;;;;0.90;0.80;;;13.80;83.60;;;;;;5028642;28;20699;-68
2022/11/09 04:07:39;;;;;;;1.30;0.90;;;13.80;83.40;;;;;;5011887;28;20454;-69
2022/11/09 04:10:08;;;;;;;1.03;0.93;;;13.80;83.30;;;;;;5025781;28;20487;-70
2022/11/09 04:12:38;;;;;;;1.07;0.70;;;13.80;83.30;;;;;;5011036;28;20807;-69
2022/11/09 04:15:08;;;;;;;1.93;0.97;;;13.80;83.40;;;;;;5010558;28;20555;-67
2022/11/09 04:17:36;;;;;;;1.37;1.10;;;13.80;83.20;;;;;;5010230;28;20463;-67
2022/11/09 04:20:06;;;;;;;1.73;1.23;;;13.80;83.30;;;;;;5026430;28;20479;-68
2022/11/09 04:22:35;;;;;;;1.03;0.83;;;13.80;83.20;;;;;;5027195;28;20896;-69
2022/11/09 04:25:05;;;;;;;2.60;1.00;;;13.80;83.10;;;;;;5018632;28;20473;-68
2022/11/09 04:27:33;;;;;;;1.07;0.73;;;13.80;83.20;;;;;;5010062;28;21045;-69
2022/11/09 04:30:04;;;;;;;2.70;0.80;;;13.80;83.10;;;;;;5009903;28;20480;-68
2022/11/09 04:32:33;;;;;;;2.37;0.90;;;13.80;83.20;;;;;;5009656;28;20469;-68
2022/11/09 04:35:01;;;;;;;1.20;0.70;;;13.80;83.20;;;;;;5009578;28;20548;-69
2022/11/09 04:37:30;;;;;;;0.83;0.60;;;13.80;83.20;;;;;;5027418;28;20531;-68
2022/11/09 04:39:58;;;;;;;1.20;1.10;;;13.80;83.30;;;;;;4992519;28;20475;-69
2022/11/09 04:42:27;;;;;;;1.50;0.73;;;13.80;83.20;;;;;;5026957;28;20470;-69
2022/11/09 04:44:56;;;;;;;1.70;0.90;;;13.80;83.20;;;;;;5004203;28;20503;-69
2022/11/09 04:47:26;;;;;;;1.10;0.80;;;13.80;83.10;;;;;;5026797;28;20435;-68
2022/11/09 04:49:54;;;;;;;1.37;1.27;;;13.80;83.10;;;;;;5013392;28;20526;-68
2022/11/09 04:52:23;;;;;;;1.90;0.90;;;13.90;83.20;;;;;;5020564;28;20437;-69
2022/11/09 04:54:51;;;;;;;1.10;0.80;;;13.80;83.10;;;;;;5007049;28;21018;-68
2022/11/09 04:57:19;;;;;;;1.30;0.90;;;13.90;83.10;;;;;;5010822;28;20536;-69
2022/11/09 04:59:48;;;;;;;1.80;1.63;;;13.80;83.00;;;;;;5008914;28;20472;-68
2022/11/09 05:02:17;;;;;;;1.00;1.00;;;13.80;83.10;;;;;;5025606;28;20509;-70
2022/11/09 05:04:47;;;;;;;1.27;0.80;;;13.80;83.10;;;;;;5009897;28;20468;-70
2022/11/09 05:07:15;;;;;;;1.00;0.70;;;13.80;83.00;;;;;;5008363;28;20513;-69
2022/11/09 05:09:44;;;;;;;0.73;0.73;;;13.80;83.10;;;;;;5023378;28;20493;-69
2022/11/09 05:12:13;;;;;;;2.53;1.10;;;13.80;83.10;;;;;;5020245;28;20490;-69
2022/11/09 05:14:41;;;;;;;1.17;1.07;;;13.80;84.30;;;;;;5026491;28;20820;-70
2022/11/09 05:17:10;;;;;;;0.80;0.80;;;13.80;83.20;;;;;;5009945;28;20567;-69
2022/11/09 05:19:38;;;;;;;1.27;0.70;;;13.80;83.00;;;;;;5025048;28;20563;-69
2022/11/09 05:24:54;;;;;;;1.43;0.70;;;13.80;83.00;;;;;;5021898;28;20472;-68
2022/11/09 05:27:23;;;;;;;1.10;1.00;;;13.80;83.00;;;;;;5026767;28;20440;-70
2022/11/09 05:29:52;;;;;;;1.00;0.80;;;13.80;83.00;;;;;;5008880;28;20475;-69
2022/11/09 05:32:20;;;;;;;0.83;0.80;;;13.80;83.00;;;;;;5008986;28;20539;-69
2022/11/09 05:34:49;;;;;;;1.20;0.60;;;13.80;83.00;;;;;;5025638;28;20558;-68
2022/11/09 05:37:21;;;;;;;1.90;1.00;;;13.80;83.10;;;;;;5013094;28;20494;-69
2022/11/09 05:39:49;;;;;;;1.10;0.90;;;13.80;83.00;;;;;;5023019;28;20471;-69
2022/11/09 05:42:18;;;;;;;1.43;0.70;;;13.80;83.00;;;;;;5010297;28;20460;-68
2022/11/09 05:44:46;;;;;;;1.50;1.40;;;13.80;83.10;;;;;;5028390;28;20474;-69
2022/11/09 05:47:14;;;;;;;3.17;0.87;;;13.80;83.00;;;;;;5022453;28;20448;-70
2022/11/09 05:49:43;;;;;;;1.00;0.90;;;13.80;82.90;;;;;;5022516;28;20467;-68
2022/11/09 05:52:11;;;;;;;1.60;0.90;;;13.80;82.80;;;;;;5022662;28;20591;-68
2022/11/09 05:54:41;;;;;;;0.90;0.70;;;13.80;82.70;;;;;;5009990;28;20478;-69
2022/11/09 05:57:10;;;;;;;0.80;0.80;;;13.80;82.80;;;;;;5030756;28;20440;-69
2022/11/09 05:59:38;;;;;;;1.37;0.80;;;13.80;83.00;;;;;;5012109;28;20483;-69
2022/11/09 06:02:07;;;;;;;0.77;0.50;;;13.80;82.90;;;;;;5030036;28;20815;-69
2022/11/09 06:04:35;;;;;;;1.00;0.70;;;13.80;82.80;;;;;;5031710;28;20458;-69
2022/11/09 06:07:04;;;;;;;1.40;0.93;;;13.80;83.10;;;;;;5030657;28;20451;-70
2022/11/09 06:09:32;;;;;;;1.93;0.80;;;13.90;83.20;;;;;;5011131;28;20522;-69
2022/11/09 06:12:02;;;;;;;2.20;0.87;;;13.80;83.10;;;;;;5029586;28;20708;-69
2022/11/09 06:14:30;;;;;;;1.53;0.80;;;13.80;83.10;;;;;;5013032;28;20474;-69
2022/11/09 06:16:59;;;;;;;0.93;0.83;;;13.80;83.10;;;;;;5031408;28;20472;-69
2022/11/09 06:19:28;;;;;;;1.57;1.10;;;13.80;83.20;;;;;;5051654;28;20471;-70
2022/11/09 06:21:56;;;;;;;6.67;1.20;;;13.80;83.10;;;;;;5032964;28;20498;-70
2022/11/09 06:24:24;;;;;;;1.27;1.00;;;13.80;83.10;;;;;;5006383;28;20436;-69
2022/11/09 06:26:53;;;;;;;2.53;1.10;;;13.80;83.30;;;;;;5029783;28;20870;-69
2022/11/09 06:29:23;;;;;;;0.90;0.83;;;13.80;83.70;;;;;;5012118;28;20478;-68
2022/11/09 06:31:51;;;;;;;1.30;0.77;;;13.80;83.60;;;;;;5004245;28;20475;-69
2022/11/09 06:34:19;;;;;;;1.83;0.90;;;13.80;84.70;;;;;;5028179;28;20468;-68
2022/11/09 06:36:48;;;;;;;1.00;1.00;;;13.80;83.80;;;;;;5012208;28;20535;-66
2022/11/09 06:39:16;;;;;;;1.20;0.87;;;13.80;83.70;;;;;;5027504;28;20464;-68
2022/11/09 06:41:45;;;;;;;0.93;0.70;;;13.80;83.40;;;;;;5027796;28;20447;-68
2022/11/09 06:44:15;;;;;;;1.87;1.03;;;13.80;83.60;;;;;;5023550;28;20463;-67
2022/11/09 06:46:45;;;;;;;1.60;0.97;;;13.80;83.20;;;;;;5019912;28;20475;-68
2022/11/09 06:49:13;;;;;;;1.80;0.80;;;13.80;83.30;;;;;;5014211;28;20480;-69
2022/11/09 06:51:42;;;;;;;1.37;1.23;;;13.80;83.50;;;;;;5028468;28;20444;-69
2022/11/09 06:54:10;;;;;;;0.87;0.80;;;13.80;83.70;;;;;;5011108;28;20475;-68
2022/11/09 06:56:39;;;;;;;1.63;0.77;;;13.80;83.60;;;;;;5011970;28;20525;-69
2022/11/09 06:59:07;;;;;;;2.13;0.90;;;13.80;83.80;;;;;;5011906;28;20559;-68
2022/11/09 07:01:36;;;;;;;2.20;1.00;;;13.80;84.20;;;;;;5024326;28;20462;-68
2022/11/09 07:04:06;;;;;;;2.00;0.80;;;13.80;84.20;;;;;;5027619;28;20554;-68
2022/11/09 07:06:39;;;;;;;1.03;0.90;;;13.80;84.10;;;;;;5008195;28;20467;-67
2022/11/09 07:09:07;;;;;;;0.90;0.90;;;13.80;84.10;;;;;;5027274;28;20568;-68
2022/11/09 07:11:36;;;;;;;1.33;0.97;;;13.80;83.60;;;;;;5028365;28;20433;-68
2022/11/09 07:14:05;;;;;;;1.37;1.20;;;13.80;83.90;;;;;;5028804;28;20950;-69
2022/11/09 07:16:33;;;;;;;1.53;0.80;;;13.80;84.70;;;;;;5029451;28;20451;-68
2022/11/09 07:19:02;;;;;;;1.57;0.70;;;13.80;83.90;;;;;;5028035;28;20995;-68
2022/11/09 07:21:31;;;;;;;1.27;0.60;;;13.80;83.80;;;;;;5022648;28;20719;-67
2022/11/09 07:24:00;;;;;;;1.27;0.70;;;13.80;83.60;;;;;;5009886;28;20483;-68
2022/11/09 07:26:28;;;;;;;1.33;0.70;;;13.80;84.90;;;;;;5020513;28;20507;-69
2022/11/09 07:28:57;;;;;;;1.07;0.80;;;13.80;83.80;;;;;;5021994;28;20955;-68
2022/11/09 07:31:28;;;;;;;1.57;0.80;;;13.80;84.00;;;;;;5035195;28;20454;-69
2022/11/09 07:33:57;;;;;;;0.90;0.83;;;13.80;83.80;;;;;;5026528;28;20447;-69
2022/11/09 07:36:26;;;;;;;0.77;0.67;;;13.80;83.60;;;;;;5013928;28;20432;-69
2022/11/09 07:38:55;;;;;;;1.13;0.90;;;13.80;83.80;;;;;;5009320;28;20478;-68
2022/11/09 07:41:24;;;;;;;0.97;0.67;;;13.80;83.70;;;;;;5025075;28;20441;-69
2022/11/09 07:43:59;;;;;;;1.20;0.97;;;13.80;83.70;;;;;;5010829;28;21024;-67
2022/11/09 07:46:28;;;;;;;0.90;0.70;;;13.80;83.60;;;;;;5027068;28;20440;-69
2022/11/09 07:48:56;;;;;;;1.23;1.03;;;13.80;83.70;;;;;;5010307;28;20480;-67
2022/11/09 07:51:25;;;;;;;1.50;1.10;;;13.80;83.90;;;;;;5021156;28;20437;-66
2022/11/09 07:53:54;;;;;;;1.20;0.90;;;13.80;83.60;;;;;;5010643;28;20783;-69
2022/11/09 07:56:23;;;;;;;0.80;0.80;;;13.80;83.70;;;;;;5025612;28;20947;-67
2022/11/09 07:58:52;;;;;;;2.10;0.67;;;13.80;83.60;;;;;;5026825;28;20473;-68
2022/11/09 08:01:20;;;;;;;3.17;0.57;;;13.80;83.60;;;;;;5025034;28;20455;-68
2022/11/09 08:03:48;;;;;;;0.80;0.47;;;13.80;83.40;;;;;;5027315;28;20472;-68
2022/11/09 08:06:17;;;;;;;1.00;0.70;;;13.80;83.40;;;;;;5023945;28;20487;-69
2022/11/09 08:08:48;;;;;;;1.10;0.70;;;13.80;83.30;;;;;;5027410;28;20527;-68
2022/11/09 08:11:18;;;;;;;0.77;0.60;;;13.80;83.10;;;;;;5028316;28;20800;-68
2022/11/09 08:13:46;;;;;;;1.43;0.90;;;13.80;83.10;;;;;;5011107;28;20986;-67
2022/11/09 08:16:15;;;;;;;1.37;1.10;;;13.80;83.10;;;;;;5011172;28;20468;-68
2022/11/09 08:18:43;;;;;;;1.10;0.90;;;13.80;82.90;;;;;;5025162;28;20813;-67
2022/11/09 08:21:12;;;;;;;1.00;0.90;;;13.80;82.90;;;;;;5010206;28;20471;-67
2022/11/09 08:23:41;;;;;;;0.90;0.60;;;13.80;82.80;;;;;;5025388;28;21011;-68
2022/11/09 08:26:11;;;;;;;1.00;0.90;;;13.80;82.80;;;;;;5010429;28;20915;-68
2022/11/09 08:28:41;;;;;;;1.33;0.67;;;13.80;82.70;;;;;;5023354;28;20511;-69
2022/11/09 08:31:10;;;;;;;2.00;0.80;;;13.80;82.60;;;;;;5004833;28;20594;-68
2022/11/09 08:33:41;;;;;;;1.00;0.70;;;13.80;82.60;;;;;;5010539;28;20429;-67
2022/11/09 08:36:12;;;;;;;0.83;0.80;;;13.80;82.50;;;;;;5027722;28;20456;-67
2022/11/09 08:38:41;;;;;;;1.73;0.80;;;13.80;82.50;;;;;;5023832;28;20452;-69
2022/11/09 08:41:13;;;;;;;1.27;0.70;;;13.80;82.30;;;;;;5026174;28;20519;-68
2022/11/09 08:43:43;;;;;;;0.70;0.50;;;13.80;82.50;;;;;;5034221;28;20456;-68
2022/11/09 08:46:12;;;;;;;0.80;0.70;;;13.90;82.40;;;;;;5027365;28;20535;-67
2022/11/09 08:48:40;;;;;;;0.87;0.70;;;13.90;82.30;;;;;;5024023;28;21028;-69
2022/11/09 08:51:09;;;;;;;1.43;0.60;;;13.90;82.20;;;;;;5010304;28;20432;-68
2022/11/09 08:53:37;;;;;;;0.80;0.53;;;13.90;82.10;;;;;;5061930;23;20595;-71
2022/11/09 08:56:07;;;;;;;1.97;0.80;;;13.90;82.00;;;;;;5026810;28;20423;-70
2022/11/09 08:58:37;;;;;;;1.13;0.70;;;13.90;82.00;;;;;;5029475;28;20498;-70
2022/11/09 09:01:10;;;;;;;1.33;0.80;;;13.90;82.00;;;;;;5009395;28;20517;-70
2022/11/09 09:03:45;;;;;;;1.00;0.63;;;13.90;82.00;;;;;;5002027;28;20464;-70
2022/11/09 09:06:14;;;;;;;1.63;0.90;;;13.90;81.90;;;;;;5006622;28;20489;-70
2022/11/09 09:08:43;;;;;;;1.20;0.80;;;13.90;81.80;;;;;;5005010;28;21042;-70
2022/11/09 09:11:12;;;;;;;1.50;0.63;;;13.90;81.80;;;;;;5007259;28;20425;-70
2022/11/09 09:13:41;;;;;;;1.53;0.70;;;13.90;81.70;;;;;;4994286;28;20503;-70
2022/11/09 09:16:15;;;;;;;1.27;0.70;;;13.90;81.60;;;;;;5005946;28;20454;-69
2022/11/09 09:18:44;;;;;;;1.10;0.77;;;13.90;81.60;;;;;;5022686;28;20448;-69
2022/11/09 09:21:13;;;;;;;1.17;0.80;;;13.90;81.60;;;;;;5007535;28;20944;-70
2022/11/09 09:23:46;;;;;;;1.00;0.73;;;13.90;81.60;;;;;;4999912;28;20973;-68
2022/11/09 09:26:15;;;;;;;1.10;0.77;;;13.90;81.50;;;;;;5021028;28;21048;-70
2022/11/09 09:28:44;;;;;;;0.87;0.83;;;13.90;81.50;;;;;;5013570;28;20439;-68
2022/11/09 09:31:14;;;;;;;1.27;0.50;;;13.90;81.50;;;;;;5010006;28;20428;-69
2022/11/09 09:33:47;;;;;;;1.50;0.87;;;13.90;81.50;;;;;;5011295;28;20445;-70
2022/11/09 09:36:18;;;;;;;1.00;0.70;;;13.90;81.50;;;;;;5021555;28;21010;-70
2022/11/09 09:38:49;;;;;;;1.10;1.00;;;13.90;81.50;;;;;;5014400;28;20877;-70
2022/11/09 09:41:23;;;;;;;3.00;0.87;;;13.90;81.40;;;;;;4999039;28;20986;-70
2022/11/09 09:43:57;;;;;;;0.90;0.77;;;13.90;81.40;;;;;;5004224;28;20428;-69
2022/11/09 09:46:32;;;;;;;0.93;0.67;;;13.90;81.30;;;;;;5008832;28;20487;-70
2022/11/09 09:49:06;;;;;;;1.00;0.80;;;13.90;81.40;;;;;;5006833;28;20510;-70
2022/11/09 09:51:41;;;;;;;2.10;0.90;;;13.90;81.40;;;;;;5001718;28;20501;-70
2022/11/09 09:54:16;;;;;;;0.90;0.70;;;13.90;81.30;;;;;;5005047;28;20486;-69
2022/11/09 09:56:49;;;;;;;0.70;0.67;;;13.90;81.30;;;;;;5010970;28;20440;-70
2022/11/09 09:59:23;;;;;;;1.17;0.87;;;13.90;81.30;;;;;;5027829;28;20464;-70
2022/11/09 10:01:56;;;;;;;1.07;0.90;;;13.90;81.30;;;;;;5018909;28;20963;-70
2022/11/09 10:04:48;;;;;;;1.80;0.60;;;13.90;81.30;;;;;;5005570;28;20461;-69
2022/11/09 10:11:13;;;;;;;0.70;0.57;;;13.90;81.30;;;;;;4999422;28;20481;-70
2022/11/09 10:14:40;;;;;;;1.87;0.80;;;13.90;81.20;;;;;;5021107;28;20420;-70
2022/11/09 10:17:34;;;;;;;1.43;0.80;;;13.90;81.20;;;;;;5019091;28;20467;-70
2022/11/09 10:20:52;;;;;;;1.00;0.87;;;13.90;81.20;;;;;;5010609;28;20464;-68
2022/11/09 10:24:08;;;;;;;0.60;0.60;;;13.90;81.20;;;;;;4990548;28;20433;-69
2022/11/09 10:26:55;;;;;;;1.07;0.80;;;13.90;81.20;;;;;;4992852;28;20447;-69
2022/11/09 10:29:41;;;;;;;1.17;0.60;;;13.90;81.20;;;;;;5013832;28;20849;-70
2022/11/09 10:35:47;;;;;;;1.17;0.70;;;13.90;81.20;;;;;;5009102;28;20464;-69
2022/11/09 10:38:39;;;;;;;1.03;0.70;;;13.90;81.10;;;;;;5016043;28;20901;-68
2022/11/09 10:41:48;;;;;;;2.13;0.70;;;13.90;81.10;;;;;;5025134;28;20473;-70
2022/11/09 10:44:54;;;;;;;3.50;3.03;;;13.90;81.00;;;;;;4989639;28;20477;-70
2022/11/09 10:48:23;;;;;;;1.17;0.90;;;13.90;81.00;;;;;;5025262;28;21008;-70
2022/11/09 10:51:38;;;;;;;1.30;0.47;;;13.90;81.00;;;;;;5021208;28;20444;-71
2022/11/09 10:54:27;;;;;;;2.40;0.83;;;13.90;81.00;;;;;;5016456;28;21051;-73
2022/11/09 10:57:17;;;;;;;0.97;0.87;;;13.90;81.00;;;;;;5023080;28;20451;-73
2022/11/09 11:00:13;;;;;;;1.20;0.60;;;13.90;81.00;;;;;;5018262;28;20504;-73
2022/11/09 11:03:10;;;;;;;1.30;0.83;;;13.90;80.80;;;;;;5019661;28;20443;-73
2022/11/09 11:05:59;;;;;;;1.53;0.83;;;13.90;80.90;;;;;;5016373;28;20575;-68
2022/11/09 11:08:47;;;;;;;1.63;1.33;;;13.90;80.90;;;;;;5015538;28;20456;-70
2022/11/09 11:11:37;;;;;;;1.00;0.80;;;13.90;80.80;;;;;;5021817;28;20441;-71
2022/11/09 11:14:31;;;;;;;2.57;0.90;;;13.90;80.90;;;;;;5022401;28;20471;-73
2022/11/09 11:17:23;;;;;;;2.90;0.93;;;14.00;80.90;;;;;;5019913;28;20448;-73
2022/11/09 11:20:32;;;;;;;1.13;0.77;;;14.00;80.90;;;;;;5024892;28;20472;-71
2022/11/09 11:23:21;;;;;;;3.00;1.20;;;14.00;80.70;;;;;;5017618;28;20455;-71
2022/11/09 11:26:30;;;;;;;1.57;0.90;;;14.00;80.00;;;;;;5018276;28;20269;-73
2022/11/09 11:29:32;;;;;;;1.10;0.80;;;14.00;80.00;;;;;;5011984;28;20465;-73
2022/11/09 11:32:20;;;;;;;3.17;1.20;;;14.00;80.10;;;;;;5022402;28;20535;-72
2022/11/09 11:35:14;;;;;;;3.37;0.73;;;14.00;80.00;;;;;;5022910;28;20560;-73
2022/11/09 11:38:13;;;;;;;1.47;0.70;;;14.00;80.00;;;;;;5022231;28;20812;-73
2022/11/09 11:41:06;;;;;;;2.13;0.80;;;14.00;80.00;;;;;;5018338;28;20512;-73
2022/11/09 11:43:59;;;;;;;0.67;0.67;;;14.00;80.10;;;;;;5025033;28;20528;-73
2022/11/09 11:46:47;;;;;;;2.73;0.73;;;14.00;80.00;;;;;;5019281;28;20837;-73
2022/11/09 11:49:57;;;;;;;1.07;0.70;;;14.00;79.90;;;;;;5023665;28;20472;-73
2022/11/09 11:52:56;;;;;;;1.23;0.90;;;14.00;80.00;;;;;;5022973;28;20441;-73
2022/11/09 11:56:07;;;;;;;1.03;0.70;;;14.00;80.00;;;;;;5022714;28;20469;-73
2022/11/09 11:59:22;;;;;;;2.50;0.70;;;14.00;80.10;;;;;;5010070;28;20433;-73
2022/11/09 12:02:51;;;;;;;2.00;1.00;;;14.00;80.00;;;;;;5014424;28;20459;-73
2022/11/09 12:06:04;;;;;;;1.00;0.60;;;14.00;79.80;;;;;;5022099;28;20475;-73
2022/11/09 12:09:05;;;;;;;6.53;0.90;;;14.00;79.90;;;;;;5011431;28;21078;-73
2022/11/09 12:12:10;;;;;;;3.37;0.70;;;14.00;79.80;;;;;;5022453;28;20440;-73
2022/11/09 12:15:16;;;;;;;1.53;0.80;;;14.00;79.90;;;;;;5018730;28;20993;-73
2022/11/09 12:18:15;;;;;;;1.03;0.90;;;14.00;79.90;;;;;;5015022;28;20918;-73
2022/11/09 12:21:14;;;;;;;1.50;1.00;;;14.00;79.70;;;;;;5016594;28;20468;-73
2022/11/09 12:24:20;;;;;;;4.23;2.13;;;14.00;79.80;;;;;;5015808;28;20445;-73
2022/11/09 12:27:36;;;;;;;0.97;0.73;;;14.00;79.80;;;;;;5015502;28;20471;-73
2022/11/09 12:30:30;;;;;;;2.03;0.60;;;14.00;79.90;;;;;;5021217;28;20479;-72
2022/11/09 12:33:58;;;;;;;2.30;0.60;;;14.00;79.90;;;;;;5018293;28;20440;-71
2022/11/09 12:37:00;;;;;;;2.87;1.10;;;14.00;79.90;;;;;;5016526;28;20973;-73
2022/11/09 12:40:01;;;;;;;2.70;0.90;;;14.00;79.60;;;;;;5014086;28;20555;-73
2022/11/09 12:43:05;;;;;;;4.93;1.30;;;14.00;79.60;;;;;;5019323;28;20491;-73
2022/11/09 12:45:59;;;;;;;0.73;0.70;;;14.00;79.60;;;;;;4986428;28;20467;-70
2022/11/09 12:48:48;;;;;;;1.10;0.83;;;14.00;81.00;;;;;;5015301;28;20781;-70
2022/11/09 12:51:37;;;;;;;2.20;1.17;;;14.00;79.80;;;;;;5027253;28;20495;-70
2022/11/09 12:54:25;;;;;;;1.20;0.97;;;14.00;79.80;;;;;;5020877;28;20467;-69
2022/11/09 12:57:15;;;;;;;0.90;0.70;;;14.00;79.80;;;;;;5025464;28;20507;-68
2022/11/09 13:00:44;;;;;;;1.23;0.70;;;14.00;79.80;;;;;;5024670;28;20773;-70
2022/11/09 13:04:12;;;;;;;1.60;0.87;;;14.00;79.70;;;;;;5024953;28;20440;-68
2022/11/09 13:07:51;;;;;;;1.03;0.50;;;14.00;79.60;;;;;;5017702;28;20515;-70
2022/11/09 13:10:39;;;;;;;1.10;0.80;;;14.00;79.60;;;;;;5024251;28;20468;-71
2022/11/09 13:13:26;;;;;;;1.10;0.90;;;14.00;79.70;;;;;;5016172;28;20446;-73
2022/11/09 13:16:34;;;;;;;2.30;0.83;;;14.00;79.60;;;;;;5018597;28;20460;-73
2022/11/09 13:19:53;;;;;;;1.80;1.03;;;14.00;79.60;;;;;;5022037;28;20486;-72
2022/11/09 13:23:00;;;;;;;1.97;0.60;;;14.00;79.60;;;;;;5024738;28;20880;-72
2022/11/09 13:25:51;;;;;;;0.90;0.70;;;14.00;79.70;;;;;;5022574;28;20471;-73
2022/11/09 13:29:11;;;;;;;2.17;0.87;;;14.00;79.70;;;;;;5024422;28;20451;-70
2022/11/09 13:32:26;;;;;;;0.90;0.63;;;14.00;79.50;;;;;;5010245;28;20468;-68
2022/11/09 13:35:46;;;;;;;3.93;2.00;;;14.00;79.70;;;;;;5028128;28;20830;-68
2022/11/09 13:38:35;;;;;;;2.93;1.53;;;14.00;79.60;;;;;;5024961;28;20945;-68
2022/11/09 13:41:45;;;;;;;2.93;1.93;;;14.00;79.40;;;;;;5009220;28;20478;-70
2022/11/09 13:44:31;;;;;;;2.20;1.63;;;14.00;79.50;;;;;;5018628;28;20464;-68
2022/11/09 13:47:30;;;;;;;2.23;1.23;;;14.00;79.60;;;;;;5016506;28;20499;-68
2022/11/09 13:50:19;;;;;;;3.67;2.17;;;14.00;79.60;;;;;;5007661;28;20983;-69